UAE216 KLAX-OMDB
Flight info
| Callsign | UAE216 |
|---|---|
| Flight time | N/A |
| Altitude | 31000 |
| Route | OSHNN1 BEALE J146 DICEE DCT KD45Q DCT KD48S DCT KD51U DCT KD57A DCT KP66G DCT KG75K DCT BAE/N0484F330 DCT DAYYY DCT ROSVO DCT MIILS N285B NICSO/M082F330 DCT 48N050W 50N040W 51N030W 51N020W DCT DINIM DCT ELSOX DCT LULOX/N0472F330 DCT LIZAD/N0466F350 DCT JSY DCT ARSUK/N0473F370 DCT RESMI UL612 OGULO DCT OKASI DCT OKEKO DCT MOU DCT MADIV DCT MOKIP DCT TUFTA DCT KOGAS DCT MEDAM DCT NITAM DCT MOGBO DCT UPDIN DCT ARBUM DCT BELIX DCT SALUN N705 MMA/N0476F390 P751 DASUM Y234 FYM M872 BDB Y214 RAPMA DCT KUVSO DCT KATIT DCT PEKEM M628 RIGIL G783 ELUDA/N0459F350 G783 ASPED Q308 KIPOK/N0455F340 Q568 IMPED |
| Aircraft | B77W/H-SDE1E2E3FGHIJ2J3J4J5M1RWXY/LB1D1 |
Departure
| Time | N/A |
|---|---|
| Airport | Los Angeles International Airport (KLAX) |
Arrival
| Time | 2026-04-21 19:17 |
|---|---|
| Airport | Dubai International Airport (OMDB) |
| Time | Latitude | Longitude | Altitude | Speed | Heading |
|---|---|---|---|---|---|
| 2026-04-21 18:28 | 23.03073 | 51.20965 | 38780 ft | 555 kts | 97° |
| 2026-04-21 18:28 | 23.01782 | 51.29177 | 38789 ft | 554 kts | 98° |
| 2026-04-21 18:29 | 23.00482 | 51.37420 | 38792 ft | 552 kts | 97° |
| 2026-04-21 18:29 | 22.99182 | 51.45634 | 38794 ft | 552 kts | 98° |
| 2026-04-21 18:30 | 22.97884 | 51.53812 | 38806 ft | 553 kts | 98° |
| 2026-04-21 18:30 | 22.96579 | 51.62000 | 38804 ft | 552 kts | 98° |
| 2026-04-21 18:31 | 22.95270 | 51.70186 | 38782 ft | 551 kts | 98° |
| 2026-04-21 18:31 | 22.93962 | 51.78334 | 38787 ft | 550 kts | 98° |
| 2026-04-21 18:32 | 22.92641 | 51.86541 | 38788 ft | 549 kts | 98° |
| 2026-04-21 18:32 | 22.91330 | 51.94659 | 38793 ft | 548 kts | 98° |
| 2026-04-21 18:33 | 22.90011 | 52.02797 | 38793 ft | 547 kts | 98° |
| 2026-04-21 18:33 | 22.88690 | 52.10919 | 38794 ft | 550 kts | 97° |
| 2026-04-21 18:34 | 22.87355 | 52.19104 | 38796 ft | 549 kts | 98° |
| 2026-04-21 18:34 | 22.86022 | 52.27248 | 38794 ft | 549 kts | 98° |
| 2026-04-21 18:35 | 22.84905 | 52.34052 | 38799 ft | 549 kts | 98° |
| 2026-04-21 18:35 | 22.83336 | 52.43574 | 38795 ft | 548 kts | 98° |
| 2026-04-21 18:36 | 22.82341 | 52.51716 | 38806 ft | 544 kts | 89° |
| 2026-04-21 18:36 | 22.82132 | 52.59921 | 38797 ft | 544 kts | 87° |
| 2026-04-21 18:37 | 22.82692 | 52.68008 | 38770 ft | 532 kts | 71° |
| 2026-04-21 18:37 | 22.85033 | 52.75544 | 38785 ft | 525 kts | 61° |
| 2026-04-21 18:38 | 22.87779 | 52.82821 | 38793 ft | 523 kts | 61° |
| 2026-04-21 18:38 | 22.90544 | 52.90146 | 38797 ft | 526 kts | 60° |
| 2026-04-21 18:39 | 22.93287 | 52.97424 | 38800 ft | 524 kts | 61° |
| 2026-04-21 18:39 | 22.96052 | 53.04770 | 38800 ft | 525 kts | 61° |
| 2026-04-21 18:40 | 22.98789 | 53.12054 | 38796 ft | 524 kts | 60° |
| 2026-04-21 18:40 | 23.01082 | 53.18171 | 38808 ft | 524 kts | 60° |
| 2026-04-21 18:41 | 23.04260 | 53.26659 | 38804 ft | 519 kts | 60° |
| 2026-04-21 18:41 | 23.07005 | 53.33998 | 38809 ft | 523 kts | 60° |
| 2026-04-21 18:42 | 23.09717 | 53.41270 | 38807 ft | 521 kts | 60° |
| 2026-04-21 18:42 | 23.12431 | 53.48552 | 38819 ft | 520 kts | 61° |
| 2026-04-21 18:43 | 23.15155 | 53.55874 | 38821 ft | 520 kts | 61° |
| 2026-04-21 18:43 | 23.17848 | 53.63124 | 38822 ft | 519 kts | 60° |
| 2026-04-21 18:44 | 23.20576 | 53.70479 | 38809 ft | 521 kts | 61° |
| 2026-04-21 18:44 | 23.23281 | 53.77789 | 38809 ft | 522 kts | 61° |
| 2026-04-21 18:45 | 23.25966 | 53.85054 | 38814 ft | 520 kts | 61° |
| 2026-04-21 18:45 | 23.28676 | 53.92400 | 38821 ft | 519 kts | 61° |
| 2026-04-21 18:46 | 23.31366 | 53.99698 | 38825 ft | 524 kts | 61° |
| 2026-04-21 18:46 | 23.34054 | 54.07015 | 38829 ft | 518 kts | 61° |
| 2026-04-21 18:47 | 23.36735 | 54.14315 | 38830 ft | 521 kts | 61° |
| 2026-04-21 18:47 | 23.39415 | 54.21629 | 38835 ft | 521 kts | 61° |
| 2026-04-21 18:48 | 23.42087 | 54.28930 | 38834 ft | 520 kts | 62° |
| 2026-04-21 18:48 | 23.44755 | 54.36234 | 38826 ft | 518 kts | 61° |
| 2026-04-21 18:49 | 23.47398 | 54.43484 | 38819 ft | 518 kts | 62° |
| 2026-04-21 18:49 | 23.49625 | 54.49597 | 38821 ft | 519 kts | 62° |
| 2026-04-21 18:50 | 23.52718 | 54.58107 | 38818 ft | 518 kts | 62° |
| 2026-04-21 18:50 | 23.55345 | 54.65348 | 38824 ft | 516 kts | 62° |
| 2026-04-21 18:51 | 23.57989 | 54.72646 | 38813 ft | 516 kts | 62° |
| 2026-04-21 18:51 | 23.60629 | 54.79943 | 38805 ft | 518 kts | 62° |
| 2026-04-21 18:52 | 23.63242 | 54.87185 | 38818 ft | 517 kts | 62° |
| 2026-04-21 18:52 | 23.65873 | 54.94484 | 38814 ft | 515 kts | 62° |
| 2026-04-21 18:53 | 23.68477 | 55.01723 | 38816 ft | 513 kts | 62° |
| 2026-04-21 18:53 | 23.71088 | 55.08992 | 38822 ft | 513 kts | 62° |
| 2026-04-21 18:54 | 23.73713 | 55.16309 | 38822 ft | 515 kts | 62° |
| 2026-04-21 18:54 | 23.76302 | 55.23541 | 38832 ft | 517 kts | 62° |
| 2026-04-21 18:55 | 23.78467 | 55.29602 | 38737 ft | 509 kts | 62° |
| 2026-04-21 18:55 | 23.80190 | 55.34429 | 37673 ft | 512 kts | 63° |
| 2026-04-21 18:55 | 23.81483 | 55.38049 | 36781 ft | 516 kts | 63° |
| 2026-04-21 18:55 | 23.82821 | 55.41686 | 35908 ft | 516 kts | 60° |
| 2026-04-21 18:56 | 23.84508 | 55.45083 | 35035 ft | 512 kts | 52° |
| 2026-04-21 18:56 | 23.86647 | 55.48191 | 34169 ft | 507 kts | 43° |
| 2026-04-21 18:56 | 23.89123 | 55.50834 | 33477 ft | 499 kts | 35° |
| 2026-04-21 18:56 | 23.91899 | 55.53067 | 32885 ft | 490 kts | 29° |
| 2026-04-21 18:57 | 23.94742 | 55.55135 | 32103 ft | 490 kts | 29° |
| 2026-04-21 18:57 | 23.97605 | 55.57190 | 30997 ft | 498 kts | 30° |
| 2026-04-21 18:57 | 24.00497 | 55.59259 | 30048 ft | 500 kts | 31° |
| 2026-04-21 18:57 | 24.03436 | 55.61359 | 29399 ft | 496 kts | 32° |
| 2026-04-21 18:58 | 24.06288 | 55.63395 | 28857 ft | 491 kts | 32° |
| 2026-04-21 18:58 | 24.09126 | 55.65420 | 28315 ft | 485 kts | 32° |
| 2026-04-21 18:58 | 24.11978 | 55.67454 | 27708 ft | 481 kts | 32° |
| 2026-04-21 18:58 | 24.14775 | 55.69449 | 27062 ft | 478 kts | 31° |
| 2026-04-21 18:59 | 24.17541 | 55.71420 | 26427 ft | 475 kts | 31° |
| 2026-04-21 18:59 | 24.20315 | 55.73398 | 25823 ft | 471 kts | 31° |
| 2026-04-21 18:59 | 24.23049 | 55.75348 | 25255 ft | 466 kts | 31° |
| 2026-04-21 18:59 | 24.25745 | 55.77271 | 24696 ft | 462 kts | 31° |
| 2026-04-21 19:00 | 24.28437 | 55.79192 | 24075 ft | 458 kts | 30° |
| 2026-04-21 19:00 | 24.31085 | 55.81082 | 23502 ft | 454 kts | 30° |
| 2026-04-21 19:00 | 24.33729 | 55.82971 | 22948 ft | 448 kts | 30° |
| 2026-04-21 19:00 | 24.36312 | 55.84816 | 22356 ft | 445 kts | 30° |
| 2026-04-21 19:01 | 24.38907 | 55.86670 | 21817 ft | 440 kts | 30° |
| 2026-04-21 19:01 | 24.41471 | 55.88504 | 21252 ft | 435 kts | 30° |
| 2026-04-21 19:01 | 24.43992 | 55.90307 | 20732 ft | 430 kts | 30° |
| 2026-04-21 19:01 | 24.46478 | 55.92086 | 20200 ft | 425 kts | 30° |
| 2026-04-21 19:02 | 24.48945 | 55.93853 | 19663 ft | 420 kts | 30° |
| 2026-04-21 19:02 | 24.51389 | 55.95603 | 19098 ft | 417 kts | 30° |
| 2026-04-21 19:02 | 24.53805 | 55.97335 | 18560 ft | 413 kts | 30° |
| 2026-04-21 19:02 | 24.56202 | 55.99053 | 18035 ft | 408 kts | 30° |
| 2026-04-21 19:03 | 24.58585 | 56.00763 | 17507 ft | 404 kts | 30° |
| 2026-04-21 19:03 | 24.60912 | 56.02432 | 16991 ft | 400 kts | 30° |
| 2026-04-21 19:03 | 24.63247 | 56.04108 | 16400 ft | 397 kts | 30° |
| 2026-04-21 19:03 | 24.65552 | 56.05763 | 15836 ft | 395 kts | 30° |
| 2026-04-21 19:04 | 24.67856 | 56.07398 | 15249 ft | 392 kts | 27° |
| 2026-04-21 19:04 | 24.70323 | 56.08673 | 14649 ft | 386 kts | 17° |
| 2026-04-21 19:04 | 24.72893 | 56.09383 | 14052 ft | 380 kts | 5° |
| 2026-04-21 19:04 | 24.75538 | 56.09528 | 13465 ft | 374 kts | 354° |
| 2026-04-21 19:05 | 24.78091 | 56.09094 | 12881 ft | 369 kts | 342° |
| 2026-04-21 19:05 | 24.80478 | 56.08147 | 12298 ft | 364 kts | 331° |
| 2026-04-21 19:05 | 24.82624 | 56.06691 | 11925 ft | 353 kts | 321° |
| 2026-04-21 19:05 | 24.84452 | 56.04975 | 11835 ft | 336 kts | 314° |
| 2026-04-21 19:06 | 24.86154 | 56.03270 | 11808 ft | 319 kts | 315° |
| 2026-04-21 19:06 | 24.87668 | 56.01573 | 11797 ft | 301 kts | 309° |
| 2026-04-21 19:06 | 24.88954 | 55.99826 | 11791 ft | 286 kts | 304° |
| 2026-04-21 19:06 | 24.90094 | 55.98090 | 11646 ft | 277 kts | 302° |
| 2026-04-21 19:07 | 24.91184 | 55.96344 | 11273 ft | 277 kts | 302° |
| 2026-04-21 19:07 | 24.92264 | 55.94580 | 10927 ft | 276 kts | 302° |
| 2026-04-21 19:07 | 24.93334 | 55.92825 | 10576 ft | 276 kts | 302° |
| 2026-04-21 19:07 | 24.94408 | 55.91063 | 10216 ft | 276 kts | 302° |
| 2026-04-21 19:08 | 24.95484 | 55.89297 | 9869 ft | 276 kts | 302° |
| 2026-04-21 19:08 | 24.96546 | 55.87553 | 9579 ft | 274 kts | 302° |
| 2026-04-21 19:08 | 24.97607 | 55.85810 | 9227 ft | 274 kts | 302° |
| 2026-04-21 19:08 | 24.98665 | 55.84072 | 8921 ft | 272 kts | 302° |
| 2026-04-21 19:09 | 24.99721 | 55.82336 | 8597 ft | 271 kts | 302° |
| 2026-04-21 19:09 | 25.00734 | 55.80590 | 8282 ft | 270 kts | 300° |
| 2026-04-21 19:09 | 25.01690 | 55.78813 | 7951 ft | 270 kts | 300° |
| 2026-04-21 19:09 | 25.02638 | 55.77038 | 7615 ft | 270 kts | 300° |
| 2026-04-21 19:10 | 25.03600 | 55.75245 | 7282 ft | 270 kts | 300° |
| 2026-04-21 19:10 | 25.04549 | 55.73488 | 6971 ft | 269 kts | 301° |
| 2026-04-21 19:10 | 25.05514 | 55.71710 | 6640 ft | 269 kts | 301° |
| 2026-04-21 19:10 | 25.06486 | 55.69927 | 6302 ft | 269 kts | 301° |
| 2026-04-21 19:11 | 25.07457 | 55.68156 | 5882 ft | 272 kts | 301° |
| 2026-04-21 19:11 | 25.08436 | 55.66382 | 5342 ft | 270 kts | 302° |
| 2026-04-21 19:11 | 25.09415 | 55.64622 | 4837 ft | 267 kts | 303° |
| 2026-04-21 19:11 | 25.10385 | 55.62896 | 4350 ft | 264 kts | 303° |
| 2026-04-21 19:12 | 25.11023 | 55.61771 | 4113 ft | 258 kts | 304° |
| 2026-04-21 19:12 | 25.12282 | 55.59644 | 3943 ft | 238 kts | 306° |
| 2026-04-21 19:12 | 25.13183 | 55.58156 | 3780 ft | 232 kts | 304° |
| 2026-04-21 19:12 | 25.14014 | 55.56644 | 3490 ft | 231 kts | 302° |
| 2026-04-21 19:13 | 25.14838 | 55.55134 | 3193 ft | 222 kts | 303° |
| 2026-04-21 19:13 | 25.15622 | 55.53721 | 2930 ft | 210 kts | 304° |
| 2026-04-21 19:13 | 25.16377 | 55.52382 | 2678 ft | 201 kts | 304° |
| 2026-04-21 19:13 | 25.17094 | 55.51108 | 2430 ft | 192 kts | 304° |
| 2026-04-21 19:14 | 25.17764 | 55.49912 | 2192 ft | 174 kts | 304° |
| 2026-04-21 19:14 | 25.18381 | 55.48809 | 1983 ft | 162 kts | 304° |
| 2026-04-21 19:14 | 25.18953 | 55.47786 | 1770 ft | 149 kts | 304° |
| 2026-04-21 19:14 | 25.19491 | 55.46819 | 1580 ft | 146 kts | 304° |
| 2026-04-21 19:15 | 25.20023 | 55.45866 | 1383 ft | 144 kts | 304° |
| 2026-04-21 19:15 | 25.20546 | 55.44928 | 1189 ft | 143 kts | 304° |
| 2026-04-21 19:15 | 25.21060 | 55.44007 | 1001 ft | 141 kts | 304° |
| 2026-04-21 19:15 | 25.21540 | 55.43145 | 827 ft | 140 kts | 304° |
| 2026-04-21 19:16 | 25.22050 | 55.42234 | 623 ft | 139 kts | 304° |
| 2026-04-21 19:16 | 25.22547 | 55.41327 | 403 ft | 136 kts | 303° |
| 2026-04-21 19:16 | 25.23042 | 55.40432 | 262 ft | 137 kts | 303° |
| 2026-04-21 19:16 | 25.23547 | 55.39541 | 96 ft | 136 kts | 304° |
| 2026-04-21 19:17 | 25.24384 | 55.38059 | 45 ft | 81 kts | 301° |
| 2026-04-21 19:17 | 25.24593 | 55.37678 | 45 ft | 36 kts | 301° |
| 2026-04-21 19:17 | 25.24715 | 55.37454 | 45 ft | 29 kts | 302° |
| 2026-04-21 19:18 | 25.24781 | 55.37249 | 45 ft | 20 kts | 277° |
| 2026-04-21 19:18 | 25.24787 | 55.37155 | 45 ft | 8 kts | 273° |
| 2026-04-21 19:18 | 25.24788 | 55.37127 | 45 ft | 2 kts | 273° |
| 2026-04-21 19:18 | 25.24789 | 55.37100 | 45 ft | 6 kts | 273° |
| 2026-04-21 19:19 | 25.24792 | 55.37023 | 45 ft | 13 kts | 272° |
| 2026-04-21 19:19 | 25.24822 | 55.36908 | 45 ft | 18 kts | 298° |
| 2026-04-21 19:19 | 25.24860 | 55.36794 | 45 ft | 14 kts | 283° |
| 2026-04-21 19:19 | 25.24895 | 55.36666 | 45 ft | 19 kts | 296° |
| 2026-04-21 19:20 | 25.24952 | 55.36553 | 45 ft | 15 kts | 301° |
| 2026-04-21 19:20 | 25.25004 | 55.36455 | 45 ft | 12 kts | 300° |
| 2026-04-21 19:20 | 25.25015 | 55.36392 | 45 ft | 7 kts | 240° |
| 2026-04-21 19:20 | 25.24969 | 55.36356 | 45 ft | 6 kts | 212° |
| 2026-04-21 19:21 | 25.24930 | 55.36328 | 45 ft | 5 kts | 212° |
| 2026-04-21 19:21 | 25.24910 | 55.36315 | 45 ft | 1 kts | 212° |
| 2026-04-21 19:21 | 25.24895 | 55.36305 | 45 ft | 3 kts | 212° |
| 2026-04-21 19:21 | 25.24887 | 55.36299 | 45 ft | 1 kts | 211° |
| 2026-04-21 19:22 | 25.24883 | 55.36297 | 45 ft | 0 kts | 211° |